createdAt,value
2017-08-27T08:28:49.686Z,101133.27
2017-08-27T08:31:19.135Z,101139.59
2017-08-27T08:33:48.646Z,101140.80
2017-08-27T08:36:18.171Z,101139.38
2017-08-27T08:38:47.560Z,101141.69
2017-08-27T08:41:16.949Z,101144.48
2017-08-27T08:43:46.303Z,101151.20
2017-08-27T08:46:15.692Z,101150.62
2017-08-27T08:48:45.247Z,101154.16
2017-08-27T08:51:14.685Z,101148.02
2017-08-27T08:53:44.069Z,101153.00
2017-08-27T08:56:13.892Z,101155.34
2017-08-27T08:58:43.573Z,101158.69
2017-08-27T09:01:13.103Z,101159.83
2017-08-27T09:03:42.472Z,101159.34
2017-08-27T09:06:11.855Z,101162.95
2017-08-27T09:08:41.249Z,101162.86
2017-08-27T09:11:10.653Z,101166.25
2017-08-27T09:13:40.093Z,101164.38
2017-08-27T09:16:09.509Z,101164.64
2017-08-27T09:18:38.977Z,101169.45
2017-08-27T09:21:08.407Z,101169.30
2017-08-27T09:23:37.846Z,101168.57
2017-08-27T09:26:07.395Z,101162.72
2017-08-27T09:28:36.816Z,101171.17
2017-08-27T09:31:06.266Z,101168.78
2017-08-27T09:33:35.752Z,101175.36
2017-08-27T09:36:05.270Z,101173.20
2017-08-27T09:38:34.639Z,101181.99
2017-08-27T09:41:04.039Z,101174.02
2017-08-27T09:43:33.388Z,101178.08
2017-08-27T09:46:02.847Z,101178.70
2017-08-27T09:48:32.248Z,101176.67
2017-08-27T09:51:01.707Z,101188.84
2017-08-27T09:53:31.452Z,101186.80
2017-08-27T09:56:01.222Z,101181.31
2017-08-27T09:58:30.605Z,101186.86
2017-08-27T10:01:00.025Z,101195.17
2017-08-27T10:03:29.732Z,101192.09
2017-08-27T10:05:59.207Z,101196.31
2017-08-27T10:08:28.616Z,101179.33
2017-08-27T10:10:58.057Z,101195.41
2017-08-27T10:13:27.472Z,101196.37
2017-08-27T10:15:56.877Z,101200.39
2017-08-27T10:18:26.270Z,101197.72
2017-08-27T10:20:55.738Z,101201.48
2017-08-27T10:23:25.146Z,101201.20
2017-08-27T10:25:54.632Z,101203.09
2017-08-27T10:28:24.096Z,101198.94
2017-08-27T10:30:53.574Z,101202.63
2017-08-27T10:33:22.971Z,101203.79
2017-08-27T10:35:52.586Z,101195.03
2017-08-27T10:38:21.954Z,101208.27
2017-08-27T10:40:51.385Z,101206.84
2017-08-27T10:43:20.817Z,101202.28
2017-08-27T10:45:50.244Z,101200.09
2017-08-27T10:48:19.688Z,101201.24
2017-08-27T10:50:49.159Z,101203.13
2017-08-27T10:53:18.633Z,101200.47
2017-08-27T10:55:48.091Z,101197.79
2017-08-27T10:58:17.631Z,101196.58
2017-08-27T11:00:47.036Z,101200.03
2017-08-27T11:03:16.761Z,101203.80
2017-08-27T11:05:46.533Z,101196.06
2017-08-27T11:08:15.910Z,101200.19
2017-08-27T11:10:45.316Z,101207.47
2017-08-27T11:13:15.382Z,101197.07
2017-08-27T11:15:44.836Z,101198.86
2017-08-27T11:18:14.296Z,101200.44
2017-08-27T11:20:43.837Z,101197.31
2017-08-27T11:23:13.333Z,101203.09
2017-08-27T11:25:42.791Z,101208.86
2017-08-27T11:28:13.104Z,101207.38
2017-08-27T11:30:42.584Z,101202.97
2017-08-27T11:33:14.196Z,101209.14
2017-08-27T11:35:43.615Z,101205.19
2017-08-27T11:38:13.035Z,101207.60
2017-08-27T11:40:42.814Z,101203.91
2017-08-27T11:43:13.835Z,101208.62
2017-08-27T11:45:44.833Z,101203.39
2017-08-27T11:48:14.558Z,101203.11
2017-08-27T11:50:45.904Z,101204.92
2017-08-27T11:53:16.945Z,101200.86
2017-08-27T11:55:47.835Z,101207.70
2017-08-27T11:58:17.569Z,101209.66
2017-08-27T12:00:47.048Z,101201.81
2017-08-27T12:03:17.045Z,101212.69
2017-08-27T12:05:46.484Z,101209.44
2017-08-27T12:08:16.225Z,101211.81
2017-08-27T12:10:45.887Z,101210.15
2017-08-27T12:13:15.279Z,101211.09
2017-08-27T12:15:44.746Z,101209.36
2017-08-27T12:18:14.748Z,101220.31
2017-08-27T12:20:44.312Z,101225.94
2017-08-27T12:23:13.762Z,101226.23
2017-08-27T12:25:43.424Z,101227.14
2017-08-27T12:28:12.940Z,101229.09
2017-08-27T12:30:42.851Z,101222.63
2017-08-27T12:33:13.263Z,101230.02
2017-08-27T12:35:44.180Z,101228.56
2017-08-27T12:38:14.680Z,101226.53
2017-08-27T12:40:44.120Z,101226.19
2017-08-27T12:43:13.665Z,101230.80
2017-08-27T12:45:43.044Z,101225.70
2017-08-27T12:48:13.065Z,101233.17
2017-08-27T12:50:42.513Z,101240.14
2017-08-27T12:53:12.067Z,101238.48
2017-08-27T12:55:41.699Z,101236.83
2017-08-27T12:58:11.164Z,101235.96
2017-08-27T13:00:40.674Z,101231.30
2017-08-27T13:03:10.149Z,101236.24
2017-08-27T13:05:39.638Z,101240.37
2017-08-27T13:08:09.240Z,101243.55
2017-08-27T13:10:38.969Z,101231.17
2017-08-27T13:13:08.474Z,101235.43
2017-08-27T13:15:38.058Z,101237.67
2017-08-27T13:18:10.592Z,101237.56
2017-08-27T13:20:40.261Z,101238.86
2017-08-27T13:23:09.978Z,101241.34
2017-08-27T13:25:39.687Z,101240.94
2017-08-27T13:28:09.333Z,101243.47
2017-08-27T13:30:38.780Z,101243.27
2017-08-27T13:33:08.442Z,101242.67
2017-08-27T13:35:38.719Z,101244.69
2017-08-27T13:38:08.097Z,101244.47
2017-08-27T13:40:38.049Z,101253.86
2017-08-27T13:43:07.532Z,101251.22
2017-08-27T13:45:37.116Z,101265.53
2017-08-27T13:48:06.584Z,101263.97
2017-08-27T13:50:36.109Z,101256.53
2017-08-27T13:53:05.748Z,101260.37
2017-08-27T13:55:35.278Z,101253.92
2017-08-27T13:58:04.685Z,101256.83
2017-08-27T14:00:34.297Z,101258.92
2017-08-27T14:03:04.066Z,101256.54
2017-08-27T14:05:33.630Z,101254.46
2017-08-27T14:08:03.235Z,101255.20
2017-08-27T14:10:32.701Z,101253.72
2017-08-27T14:13:02.073Z,101255.58
2017-08-27T14:15:31.505Z,101256.83
2017-08-27T14:18:00.890Z,101251.91
2017-08-27T14:20:31.097Z,101251.84
2017-08-27T14:23:00.602Z,101254.88
2017-08-27T14:25:30.347Z,101265.62
2017-08-27T14:28:00.213Z,101256.53
2017-08-27T14:30:29.646Z,101256.69
2017-08-27T14:32:59.362Z,101253.55
2017-08-27T14:35:42.767Z,101254.50
2017-08-27T14:38:14.498Z,101250.17
2017-08-27T14:40:44.166Z,101250.31
2017-08-27T14:43:13.711Z,101258.02
2017-08-27T14:45:43.551Z,101261.05
2017-08-27T14:48:17.472Z,101254.91
2017-08-27T14:51:13.451Z,101247.84
2017-08-27T14:53:43.049Z,101251.53
2017-08-27T14:56:12.460Z,101250.31
2017-08-27T14:58:41.809Z,101245.77
2017-08-27T15:01:11.625Z,101247.66
2017-08-27T15:03:41.055Z,101242.48
2017-08-27T15:06:10.675Z,101242.07
2017-08-27T15:08:40.184Z,101246.03
2017-08-27T15:11:09.617Z,101244.90
2017-08-27T15:13:39.357Z,101240.03
2017-08-27T15:16:08.910Z,101245.95
2017-08-27T15:18:38.405Z,101245.72
2017-08-27T15:21:07.907Z,101248.69
2017-08-27T15:23:37.416Z,101247.14
2017-08-27T15:26:06.925Z,101251.48
2017-08-27T15:28:36.445Z,101249.67
2017-08-27T15:31:06.084Z,101247.87
2017-08-27T15:33:35.649Z,101250.37
2017-08-27T15:36:07.332Z,101250.60
2017-08-27T15:38:37.725Z,101242.39
2017-08-27T15:41:07.468Z,101245.52
2017-08-27T15:43:37.550Z,101251.19
2017-08-27T15:46:07.276Z,101243.16
2017-08-27T15:48:36.866Z,101248.71
2017-08-27T15:51:07.836Z,101244.03
2017-08-27T15:53:37.216Z,101246.59
2017-08-27T15:56:06.760Z,101245.95
2017-08-27T15:58:36.198Z,101255.52
2017-08-27T16:01:05.705Z,101249.55
2017-08-27T16:03:35.116Z,101244.53
2017-08-27T16:06:04.540Z,101250.45
2017-08-27T16:08:34.156Z,101250.91
2017-08-27T16:11:03.671Z,101251.95
2017-08-27T16:13:33.101Z,101249.14
2017-08-27T16:16:02.617Z,101248.90
2017-08-27T16:18:32.004Z,101241.84
2017-08-27T16:21:01.461Z,101248.41
2017-08-27T16:23:32.634Z,101247.16
2017-08-27T16:26:02.319Z,101246.59
2017-08-27T16:28:31.700Z,101244.95
2017-08-27T16:31:01.108Z,101247.82
2017-08-27T16:33:30.650Z,101245.03
2017-08-27T16:36:00.608Z,101255.23
2017-08-27T16:38:31.616Z,101255.25
2017-08-27T16:41:01.101Z,101259.41
2017-08-27T16:43:30.498Z,101259.52
2017-08-27T16:46:00.037Z,101263.89
2017-08-27T16:48:29.493Z,101264.66
2017-08-27T16:50:58.955Z,101268.27
2017-08-27T16:53:28.358Z,101273.39
2017-08-27T16:55:58.615Z,101274.55
2017-08-27T16:58:28.065Z,101278.73
2017-08-27T17:00:57.491Z,101283.27
2017-08-27T17:03:26.890Z,101286.41
2017-08-27T17:05:56.436Z,101288.79
2017-08-27T17:08:25.811Z,101287.19
2017-08-27T17:10:55.843Z,101297.05
2017-08-27T17:13:25.276Z,101297.80
2017-08-27T17:15:54.739Z,101298.87
2017-08-27T17:18:24.291Z,101294.69
2017-08-27T17:20:53.764Z,101294.66
2017-08-27T17:23:23.155Z,101302.31
2017-08-27T17:25:52.673Z,101303.52
2017-08-27T17:28:22.136Z,101302.45
2017-08-27T17:30:51.612Z,101301.00
2017-08-27T17:33:21.933Z,101306.03
2017-08-27T17:35:51.391Z,101313.72
2017-08-27T17:38:20.738Z,101313.07
